createdAt,value
2016-05-17T00:00:42.969Z,47.34
2016-05-17T00:01:42.987Z,47.53
2016-05-17T00:02:43.006Z,47.06
2016-05-17T00:03:43.039Z,47.06
2016-05-17T00:04:43.058Z,47.44
2016-05-17T00:05:43.060Z,47.25
2016-05-17T00:06:43.110Z,47.06
2016-05-17T00:07:43.113Z,47.44
2016-05-17T00:08:43.130Z,47.63
2016-05-17T00:09:43.008Z,47.53
2016-05-17T00:10:43.027Z,47.34
2016-05-17T00:11:43.202Z,47.06
2016-05-17T00:12:43.220Z,47.15
2016-05-17T00:13:43.254Z,47.25
2016-05-17T00:14:43.116Z,47.25
2016-05-17T00:15:43.290Z,47.15
2016-05-17T00:16:43.324Z,47.06
2016-05-17T00:17:43.358Z,47.15
2016-05-17T00:18:43.204Z,47.25
2016-05-17T00:19:43.396Z,47.06
2016-05-17T00:20:43.413Z,46.96
2016-05-17T00:21:44.072Z,47.15
2016-05-17T00:22:43.450Z,47.15
2016-05-17T00:23:43.484Z,47.15
2016-05-17T00:24:43.346Z,47.25
2016-05-17T00:25:43.520Z,47.15
2016-05-17T00:26:43.539Z,47.06
2016-05-17T00:27:43.573Z,47.25
2016-05-17T00:28:43.591Z,47.15
2016-05-17T00:29:43.609Z,47.15
2016-05-17T00:30:43.628Z,46.96
2016-05-17T00:31:43.505Z,47.15
2016-05-17T00:32:43.524Z,47.15
2016-05-17T00:33:43.698Z,47.06
2016-05-17T00:34:43.716Z,46.96
2016-05-17T00:35:43.734Z,47.15
2016-05-17T00:36:43.612Z,46.86
2016-05-17T00:37:43.803Z,46.86
2016-05-17T00:38:43.822Z,46.86
2016-05-17T00:39:43.824Z,46.86
2016-05-17T00:40:43.702Z,47.32
2016-05-17T00:41:43.719Z,47.44
2016-05-17T00:42:43.894Z,47.34
2016-05-17T00:43:43.928Z,47.34
2016-05-17T00:44:43.791Z,47.34
2016-05-17T00:45:43.966Z,47.15
2016-05-17T00:46:43.983Z,47.15
2016-05-17T00:47:44.017Z,47.25
2016-05-17T00:48:44.036Z,47.44
2016-05-17T00:49:44.054Z,47.44
2016-05-17T00:50:44.071Z,47.34
2016-05-17T00:51:44.231Z,47.15
2016-05-17T00:52:43.968Z,47.25
2016-05-17T00:53:43.987Z,47.63
2016-05-17T00:54:44.176Z,47.73
2016-05-17T00:55:44.195Z,47.73
2016-05-17T00:56:44.213Z,47.71
2016-05-17T00:57:44.231Z,47.63
2016-05-17T00:58:44.265Z,47.34
2016-05-17T00:59:44.284Z,47.42
2016-05-17T01:00:44.302Z,47.73
2016-05-17T01:01:44.321Z,47.42
2016-05-17T01:02:44.198Z,47.63
2016-05-17T01:03:44.373Z,47.82
2016-05-17T01:04:44.391Z,47.53
2016-05-17T01:05:44.253Z,47.22
2016-05-17T01:06:44.442Z,47.51
2016-05-17T01:07:44.462Z,47.63
2016-05-17T01:08:44.323Z,47.73
2016-05-17T01:09:44.498Z,47.25
2016-05-17T01:10:44.376Z,47.53
2016-05-17T01:11:44.550Z,47.53
2016-05-17T01:12:44.413Z,47.53
2016-05-17T01:13:44.587Z,47.8
2016-05-17T01:14:44.621Z,47.89
2016-05-17T01:15:44.483Z,47.92
2016-05-17T01:16:44.502Z,47.73
2016-05-17T01:17:44.677Z,47.53
2016-05-17T01:18:44.710Z,47.82
2016-05-17T01:19:44.728Z,47.73
2016-05-17T01:20:44.747Z,47.53
2016-05-17T01:21:44.624Z,47.8
2016-05-17T01:22:44.799Z,47.92
2016-05-17T01:23:44.817Z,47.8
2016-05-17T01:24:44.835Z,47.71
2016-05-17T01:25:44.854Z,47.71
2016-05-17T01:26:44.888Z,47.71
2016-05-17T01:27:44.906Z,47.61
2016-05-17T01:28:44.924Z,47.71
2016-05-17T01:29:44.958Z,47.71
2016-05-17T01:30:44.976Z,47.73
2016-05-17T01:31:44.995Z,47.71
2016-05-17T01:32:45.028Z,47.8
2016-05-17T01:33:45.048Z,47.71
2016-05-17T01:34:45.065Z,47.71
2016-05-17T01:35:45.084Z,47.71
2016-05-17T01:36:45.118Z,47.51
2016-05-17T01:37:45.136Z,47.63
2016-05-17T01:38:45.154Z,47.73
2016-05-17T01:39:45.172Z,47.8
2016-05-17T01:40:45.206Z,47.8
2016-05-17T01:41:45.225Z,47.89
2016-05-17T01:42:45.244Z,47.89
2016-05-17T01:43:45.105Z,47.8
2016-05-17T01:44:45.295Z,47.8
2016-05-17T01:45:45.313Z,47.89
2016-05-17T01:46:45.332Z,47.53
2016-05-17T01:47:45.350Z,47.71
2016-05-17T01:48:45.384Z,47.71
2016-05-17T01:49:45.403Z,47.51
2016-05-17T01:50:45.421Z,47.71
2016-05-17T01:51:45.455Z,47.8
2016-05-17T01:52:45.474Z,47.61
2016-05-17T01:53:45.491Z,47.8
2016-05-17T01:54:45.510Z,47.8
2016-05-17T01:55:45.528Z,47.32
2016-05-17T01:56:45.406Z,47.8
2016-05-17T01:57:45.580Z,47.8
2016-05-17T01:58:45.615Z,47.89
2016-05-17T01:59:45.632Z,47.89
2016-05-17T02:00:45.651Z,47.22
2016-05-17T02:01:45.513Z,47.8
2016-05-17T02:02:45.687Z,47.71
2016-05-17T02:03:45.721Z,47.89
2016-05-17T02:04:45.755Z,47.8
2016-05-17T02:05:45.602Z,47.61
2016-05-17T02:06:45.792Z,47.8
2016-05-17T02:07:45.795Z,47.8
2016-05-17T02:08:45.829Z,47.32
2016-05-17T02:09:45.862Z,47.8
2016-05-17T02:10:45.881Z,47.61
2016-05-17T02:11:45.900Z,47.8
2016-05-17T02:12:45.917Z,47.71
2016-05-17T02:13:45.936Z,47.99
2016-05-17T02:14:45.955Z,48.18
2016-05-17T02:15:45.988Z,47.63
2016-05-17T02:16:46.006Z,47.71
2016-05-17T02:17:46.025Z,48.18
2016-05-17T02:18:46.058Z,47.71
2016-05-17T02:19:46.078Z,48.18
2016-05-17T02:20:46.095Z,47.89
2016-05-17T02:21:46.113Z,47.61
2016-05-17T02:22:46.147Z,47.8
2016-05-17T02:23:46.166Z,47.99
2016-05-17T02:24:46.185Z,47.8
2016-05-17T02:25:46.046Z,48.18
2016-05-17T02:26:46.237Z,47.99
2016-05-17T02:27:46.255Z,48.47
2016-05-17T02:28:46.273Z,47.99
2016-05-17T02:29:46.291Z,48.18
2016-05-17T02:30:46.326Z,47.89
2016-05-17T02:31:46.204Z,48.18
2016-05-17T02:32:46.206Z,48.28
2016-05-17T02:33:46.381Z,48.18
2016-05-17T02:34:46.414Z,47.99
2016-05-17T02:35:46.526Z,47.99
2016-05-17T02:36:46.466Z,48.18
2016-05-17T02:37:46.329Z,47.99
2016-05-17T02:38:46.503Z,48.38
2016-05-17T02:39:46.584Z,48.18
2016-05-17T02:40:46.618Z,48.09
2016-05-17T02:41:46.636Z,48.09
2016-05-17T02:42:46.592Z,47.99
2016-05-17T02:43:46.610Z,47.99
2016-05-17T02:44:46.628Z,48.38
2016-05-17T02:45:46.663Z,48.18
2016-05-17T02:46:46.681Z,47.89
2016-05-17T02:47:46.700Z,48.18
2016-05-17T02:48:46.717Z,48.18
2016-05-17T02:49:46.766Z,47.99
2016-05-17T02:50:46.613Z,48.18
2016-05-17T02:51:46.648Z,48.18
2016-05-17T02:52:46.822Z,48.09
2016-05-17T02:53:46.841Z,48.09
2016-05-17T02:54:46.858Z,48.09
2016-05-17T02:55:46.893Z,47.8
2016-05-17T02:56:46.911Z,48.09
2016-05-17T02:57:46.945Z,47.99
2016-05-17T02:58:46.948Z,48.38
2016-05-17T02:59:46.997Z,48.47
2016-05-17T03:00:47.000Z,48.28
2016-05-17T03:01:46.862Z,48.18
2016-05-17T03:02:47.037Z,48.47
2016-05-17T03:03:47.070Z,48.38
2016-05-17T03:04:47.089Z,48.38
2016-05-17T03:05:47.107Z,48.09
2016-05-17T03:06:47.140Z,48.18
2016-05-17T03:07:47.159Z,48.28
2016-05-17T03:08:47.178Z,47.99
2016-05-17T03:09:47.211Z,47.71
2016-05-17T03:10:47.230Z,48.28
2016-05-17T03:11:47.248Z,48.18
2016-05-17T03:12:47.267Z,48.38
2016-05-17T03:13:47.128Z,48.28
2016-05-17T03:14:47.303Z,48.47
2016-05-17T03:15:47.336Z,48.28
2016-05-17T03:16:47.372Z,48.28
2016-05-17T03:17:47.389Z,48.09
2016-05-17T03:18:47.408Z,48.09
2016-05-17T03:19:47.442Z,48.47
2016-05-17T03:20:47.460Z,48.38
2016-05-17T03:21:47.712Z,47.99
2016-05-17T03:22:47.496Z,47.99
2016-05-17T03:23:47.530Z,47.99
2016-05-17T03:24:47.549Z,47.99
2016-05-17T03:25:47.566Z,48.18
2016-05-17T03:26:47.601Z,48.38
2016-05-17T03:27:47.619Z,48.38
2016-05-17T03:28:47.654Z,48.38
2016-05-17T03:29:47.796Z,47.99
2016-05-17T03:30:47.674Z,47.99
2016-05-17T03:31:47.707Z,48.28
2016-05-17T03:32:47.727Z,48.18
2016-05-17T03:33:47.761Z,48.47
2016-05-17T03:34:47.779Z,48.18
2016-05-17T03:35:47.798Z,48.38
2016-05-17T03:36:47.815Z,48.28
2016-05-17T03:37:47.849Z,48.38
2016-05-17T03:38:47.711Z,48.18
2016-05-17T03:39:47.887Z,48.18
2016-05-17T03:40:47.920Z,48.18
2016-05-17T03:41:47.782Z,48.28
2016-05-17T03:42:47.972Z,48.38
2016-05-17T03:43:47.990Z,48.47
2016-05-17T03:44:48.009Z,48.09
2016-05-17T03:45:47.870Z,48.09
2016-05-17T03:46:47.889Z,47.99
2016-05-17T03:47:48.079Z,48.38
2016-05-17T03:48:48.098Z,47.99
2016-05-17T03:49:48.131Z,48.18
2016-05-17T03:50:48.149Z,48.38
2016-05-17T03:51:48.169Z,47.99
2016-05-17T03:52:48.202Z,47.99
2016-05-17T03:53:48.064Z,48.18
2016-05-17T03:54:48.238Z,48.38
2016-05-17T03:55:48.257Z,48.09
2016-05-17T03:56:48.291Z,48.28
2016-05-17T03:57:48.310Z,48.38
2016-05-17T03:58:48.343Z,48.28
2016-05-17T03:59:48.362Z,48.28
2016-05-17T04:00:48.380Z,48.28
2016-05-17T04:01:48.413Z,48.28
2016-05-17T04:02:48.432Z,48.28
2016-05-17T04:03:48.450Z,48.28
2016-05-17T04:04:48.485Z,48.09
2016-05-17T04:05:48.504Z,47.99
2016-05-17T04:06:48.537Z,48.09
2016-05-17T04:07:48.555Z,48.28
2016-05-17T04:08:48.557Z,48.47
2016-05-17T04:09:48.592Z,48.18
2016-05-17T04:10:48.609Z,48.28
2016-05-17T04:11:48.644Z,48.28
2016-05-17T04:12:48.662Z,48.28
2016-05-17T04:13:48.681Z,48.28
2016-05-17T04:14:48.714Z,47.99
2016-05-17T04:15:48.733Z,48.38
2016-05-17T04:16:48.751Z,48.18
2016-05-17T04:17:48.769Z,48.18
2016-05-17T04:18:48.803Z,48.09
2016-05-17T04:19:48.665Z,47.99
2016-05-17T04:20:48.700Z,48.28
2016-05-17T04:21:49.172Z,48.28
2016-05-17T04:22:48.892Z,48.28
2016-05-17T04:23:48.942Z,48.28
2016-05-17T04:24:48.944Z,48.28
2016-05-17T04:25:48.963Z,48.28
2016-05-17T04:26:48.996Z,48.09
2016-05-17T04:27:49.015Z,48.28
2016-05-17T04:28:49.033Z,47.99
2016-05-17T04:29:49.052Z,48.28
2016-05-17T04:30:49.085Z,48.18
2016-05-17T04:31:49.104Z,48.18
2016-05-17T04:32:49.154Z,48.09
2016-05-17T04:33:49.156Z,47.99
2016-05-17T04:34:49.049Z,48.09
2016-05-17T04:35:49.192Z,47.99
2016-05-17T04:36:49.227Z,47.99
2016-05-17T04:37:49.246Z,48.38
2016-05-17T04:38:49.263Z,47.99
2016-05-17T04:39:49.298Z,48.09
2016-05-17T04:40:49.315Z,48.18
2016-05-17T04:41:49.350Z,48.09
2016-05-17T04:42:49.367Z,47.99
2016-05-17T04:43:49.386Z,48.38
2016-05-17T04:44:49.404Z,48.18
2016-05-17T04:45:49.423Z,48.09
2016-05-17T04:46:49.457Z,48.18
2016-05-17T04:47:49.475Z,47.99
2016-05-17T04:48:49.509Z,47.8
2016-05-17T04:49:49.511Z,48.18
2016-05-17T04:50:49.545Z,47.99
2016-05-17T04:51:49.579Z,48.18
2016-05-17T04:52:49.598Z,47.8
2016-05-17T04:53:49.461Z,47.8
2016-05-17T04:54:49.635Z,47.8
2016-05-17T04:55:49.669Z,47.8
2016-05-17T04:56:49.686Z,47.8
2016-05-17T04:57:49.705Z,47.8
2016-05-17T04:58:49.739Z,47.8
2016-05-17T04:59:49.757Z,47.61
2016-05-17T05:00:49.619Z,47.71
2016-05-17T05:01:49.654Z,47.8
2016-05-17T05:02:49.828Z,47.8
2016-05-17T05:03:49.690Z,47.61
2016-05-17T05:04:49.865Z,47.8
2016-05-17T05:05:49.898Z,47.8
2016-05-17T05:06:49.932Z,47.71
2016-05-17T05:07:49.778Z,47.71
2016-05-17T05:08:49.812Z,47.8
2016-05-17T05:09:50.009Z,47.8
2016-05-17T05:10:50.070Z,47.8
2016-05-17T05:11:50.147Z,47.22
2016-05-17T05:12:50.208Z,47.22
2016-05-17T05:13:50.285Z,46.86
2016-05-17T05:14:50.332Z,46.39
2016-05-17T05:15:50.366Z,46.39
2016-05-17T05:16:50.416Z,45.83
2016-05-17T05:17:50.293Z,45.16
2016-05-17T05:18:50.484Z,44.87
2016-05-17T05:19:50.528Z,44.51
2016-05-17T05:20:50.551Z,44.03
2016-05-17T05:21:50.419Z,43.74
2016-05-17T05:22:50.614Z,43.36
2016-05-17T05:23:50.637Z,43.1
2016-05-17T05:24:50.660Z,42.33
2016-05-17T05:25:50.696Z,42.23
2016-05-17T05:26:50.560Z,42.06
2016-05-17T05:27:50.736Z,41.39
2016-05-17T05:28:50.616Z,41.49
2016-05-17T05:29:50.808Z,40.16
2016-05-17T05:30:50.826Z,39.78
2016-05-17T05:31:50.845Z,39.78
2016-05-17T05:32:50.880Z,39.89
2016-05-17T05:33:50.900Z,39.31
2016-05-17T05:34:50.917Z,38.74
2016-05-17T05:35:50.796Z,38.93
2016-05-17T05:36:51.018Z,38.18
2016-05-17T05:37:51.005Z,38.47
2016-05-17T05:38:51.040Z,38.09
2016-05-17T05:39:51.058Z,37.51
2016-05-17T05:40:51.076Z,37.89
2016-05-17T05:41:51.110Z,37.6
2016-05-17T05:42:51.129Z,37.99
2016-05-17T05:43:51.147Z,37.43
2016-05-17T05:44:51.024Z,37.02
2016-05-17T05:45:51.199Z,37.52
2016-05-17T05:46:51.234Z,36.56
2016-05-17T05:47:51.251Z,36.95
2016-05-17T05:48:51.286Z,36.56
2016-05-17T05:49:51.303Z,36.39
2016-05-17T05:50:51.322Z,36.39
2016-05-17T05:51:51.356Z,36.68
2016-05-17T05:52:51.375Z,36.49
2016-05-17T05:53:51.409Z,36.49
2016-05-17T05:54:51.427Z,36.39
2016-05-17T05:55:51.461Z,36.29
2016-05-17T05:56:51.479Z,36.19
2016-05-17T05:57:51.498Z,36.29
2016-05-17T05:58:51.531Z,36.58
2016-05-17T05:59:51.565Z,36.58
2016-05-17T06:00:51.584Z,36.1
2016-05-17T06:01:51.617Z,35.71
2016-05-17T06:02:51.636Z,36.29
2016-05-17T06:03:51.514Z,36.1
2016-05-17T06:04:51.688Z,36.1
2016-05-17T06:05:51.706Z,35.62
2016-05-17T06:06:51.990Z,36.19
2016-05-17T06:07:51.602Z,35.71
2016-05-17T06:08:51.636Z,35.81
2016-05-17T06:09:51.811Z,35.62
2016-05-17T06:10:51.844Z,36.11
2016-05-17T06:11:51.863Z,35.71
2016-05-17T06:12:51.896Z,35.71
2016-05-17T06:13:51.759Z,35.93
2016-05-17T06:14:51.949Z,35.73
2016-05-17T06:15:51.968Z,35.44
2016-05-17T06:16:53.079Z,36.02
2016-05-17T06:17:52.020Z,35.73
2016-05-17T06:18:52.054Z,35.71
2016-05-17T06:19:52.072Z,35.44
2016-05-17T06:20:52.091Z,35.73
2016-05-17T06:21:52.124Z,35.83
2016-05-17T06:22:52.001Z,35.44
2016-05-17T06:23:52.176Z,35.73
2016-05-17T06:24:52.289Z,35.64
2016-05-17T06:25:52.073Z,35.83
2016-05-17T06:26:52.248Z,35.64
2016-05-17T06:27:52.126Z,35.83
2016-05-17T06:28:52.299Z,35.54
2016-05-17T06:29:52.334Z,35.83
2016-05-17T06:30:52.367Z,36.11
2016-05-17T06:31:52.386Z,35.83
2016-05-17T06:32:52.420Z,35.73
2016-05-17T06:33:52.439Z,35.81
2016-05-17T06:34:52.472Z,36.19
2016-05-17T06:35:52.491Z,35.71
2016-05-17T06:36:52.759Z,35.91
2016-05-17T06:37:52.542Z,35.93
2016-05-17T06:38:52.561Z,35.71
2016-05-17T06:39:52.594Z,36.31
2016-05-17T06:40:52.629Z,35.71
2016-05-17T06:41:52.647Z,35.62
2016-05-17T06:42:52.681Z,36.11
2016-05-17T06:43:52.699Z,36.11
2016-05-17T06:44:52.718Z,36.1
2016-05-17T06:45:52.752Z,36.1
2016-05-17T06:46:52.770Z,35.91
2016-05-17T06:47:52.804Z,35.33
2016-05-17T06:48:52.681Z,35.14
2016-05-17T06:49:52.856Z,35.04
2016-05-17T06:50:52.718Z,34.66
2016-05-17T06:51:52.909Z,34.77
2016-05-17T06:52:52.786Z,35.14
2016-05-17T06:53:52.960Z,35.14
2016-05-17T06:54:52.995Z,34.84
2016-05-17T06:55:53.012Z,34.84
2016-05-17T06:56:53.047Z,34.09
2016-05-17T06:57:53.064Z,34.38
2016-05-17T06:58:53.084Z,34.38
2016-05-17T06:59:53.117Z,34.77
2016-05-17T07:00:53.151Z,35.04
2016-05-17T07:01:53.169Z,35.04
2016-05-17T07:02:53.203Z,34.94
2016-05-17T07:03:53.222Z,35.04
2016-05-17T07:04:53.255Z,35.33
2016-05-17T07:05:53.274Z,35.52
2016-05-17T07:06:53.714Z,35.73
2016-05-17T07:07:53.327Z,35.35
2016-05-17T07:08:53.360Z,35.35
2016-05-17T07:09:53.222Z,35.73
2016-05-17T07:10:53.412Z,35.44
2016-05-17T07:11:53.430Z,35.93
2016-05-17T07:12:53.668Z,36.02
2016-05-17T07:13:53.327Z,35.73
2016-05-17T07:14:53.516Z,35.54
2016-05-17T07:15:53.535Z,36.11
2016-05-17T07:16:53.569Z,35.93
2016-05-17T07:17:53.604Z,35.93
2016-05-17T07:18:53.621Z,35.83
2016-05-17T07:19:53.640Z,35.64
2016-05-17T07:20:53.673Z,35.93
2016-05-17T07:21:53.551Z,36.11
2016-05-17T07:22:53.742Z,36.41
2016-05-17T07:23:53.744Z,36.31
2016-05-17T07:24:53.779Z,36.02
2016-05-17T07:25:53.812Z,36.21
2016-05-17T07:26:53.846Z,36.41
2016-05-17T07:27:53.865Z,36.51
2016-05-17T07:28:53.883Z,36.41
2016-05-17T07:29:53.917Z,36.31
2016-05-17T07:30:53.950Z,36.41
2016-05-17T07:31:53.953Z,36.11
2016-05-17T07:32:53.987Z,36.41
2016-05-17T07:33:54.037Z,36.11
2016-05-17T07:34:54.133Z,36.31
2016-05-17T07:35:54.073Z,36.31
2016-05-17T07:36:54.295Z,36.69
2016-05-17T07:37:54.125Z,36.51
2016-05-17T07:38:54.144Z,36.51
2016-05-17T07:39:54.178Z,36.52
2016-05-17T07:40:54.211Z,36.41
2016-05-17T07:41:54.230Z,36.51
2016-05-17T07:42:54.264Z,36.43
2016-05-17T07:43:54.282Z,36.52
2016-05-17T07:44:54.347Z,36.13
2016-05-17T07:45:54.349Z,35.17
2016-05-17T07:46:54.369Z,35.17
2016-05-17T07:47:54.388Z,35.08
2016-05-17T07:48:54.437Z,35.08
2016-05-17T07:49:54.455Z,35.17
2016-05-17T07:50:54.473Z,34.78
2016-05-17T07:51:54.460Z,35.08
2016-05-17T07:52:54.526Z,35.17
2016-05-17T07:53:54.559Z,35.08
2016-05-17T07:54:54.593Z,35.36
2016-05-17T07:55:54.611Z,35.46
2016-05-17T07:56:54.630Z,35.46
2016-05-17T07:57:54.664Z,35.46
2016-05-17T07:58:54.698Z,36.04
2016-05-17T07:59:54.717Z,35.17
2016-05-17T08:00:54.750Z,35.28
2016-05-17T08:01:54.612Z,35.36
2016-05-17T08:02:54.803Z,35.1
2016-05-17T08:03:54.820Z,35.67
2016-05-17T08:04:54.855Z,35.19
2016-05-17T08:05:54.888Z,35.48
2016-05-17T08:06:54.907Z,35.19
2016-05-17T08:07:54.941Z,35.48
2016-05-17T08:08:54.974Z,35
2016-05-17T08:09:54.837Z,35.58
2016-05-17T08:10:55.089Z,35.77
2016-05-17T08:11:55.045Z,35.67
2016-05-17T08:12:55.064Z,36.15
2016-05-17T08:13:54.941Z,35.88
2016-05-17T08:14:55.132Z,36.17
2016-05-17T08:15:55.165Z,35.98
2016-05-17T08:16:55.027Z,35.78
2016-05-17T08:17:55.218Z,35.88
2016-05-17T08:18:55.235Z,35.69
2016-05-17T08:19:55.270Z,35.69
2016-05-17T08:20:55.288Z,35.5
2016-05-17T08:21:55.321Z,35.78
2016-05-17T08:22:55.357Z,35.98
2016-05-17T08:23:55.374Z,35.3
2016-05-17T08:24:55.393Z,35.42
2016-05-17T08:25:55.426Z,35.32
2016-05-17T08:26:55.570Z,35.13
2016-05-17T08:27:55.495Z,35.52
2016-05-17T08:28:55.512Z,35.13
2016-05-17T08:29:55.547Z,35.22
2016-05-17T08:30:55.565Z,35.03
2016-05-17T08:31:55.599Z,35.13
2016-05-17T08:32:55.617Z,34.64
2016-05-17T08:33:55.651Z,35.13
2016-05-17T08:34:55.529Z,34.16
2016-05-17T08:35:55.704Z,33.1
2016-05-17T08:36:56.316Z,33.4
2016-05-17T08:37:55.756Z,33.22
2016-05-17T08:38:56.040Z,33.4
2016-05-17T08:39:55.824Z,33.58
2016-05-17T08:40:55.842Z,33.89
2016-05-17T08:41:55.876Z,33.6
2016-05-17T08:42:55.894Z,33.6
2016-05-17T08:43:55.772Z,33.6
2016-05-17T08:44:55.962Z,33.6
2016-05-17T08:45:56.011Z,33.7
2016-05-17T08:46:56.014Z,34.08
2016-05-17T08:47:56.033Z,34.08
2016-05-17T08:48:56.066Z,34.08
2016-05-17T08:49:56.101Z,33.98
2016-05-17T08:50:56.134Z,34.08
2016-05-17T08:51:56.168Z,33.6
2016-05-17T08:52:56.187Z,33.89
2016-05-17T08:53:56.221Z,33.5
2016-05-17T08:54:56.240Z,33.7
2016-05-17T08:55:56.101Z,33.98
2016-05-17T08:56:56.291Z,34.18
2016-05-17T08:57:56.326Z,33.89
2016-05-17T08:58:56.343Z,34.18
2016-05-17T08:59:56.378Z,34.18
2016-05-17T09:00:56.396Z,33.89
2016-05-17T09:01:56.429Z,33.7
2016-05-17T09:02:56.464Z,33.7
2016-05-17T09:03:56.481Z,33.12
2016-05-17T09:04:56.516Z,32.73
2016-05-17T09:05:56.394Z,33.12
2016-05-17T09:06:56.567Z,33.4
2016-05-17T09:07:56.602Z,33.12
2016-05-17T09:08:56.620Z,33.02
2016-05-17T09:09:56.655Z,33.22
2016-05-17T09:10:56.689Z,33.12
2016-05-17T09:11:56.706Z,33.7
2016-05-17T09:13:12.475Z,33.7
2016-05-17T09:13:56.758Z,33.48
2016-05-17T09:14:56.794Z,33.7
2016-05-17T09:15:56.827Z,34.16
2016-05-17T09:16:56.845Z,34.36
2016-05-17T09:17:56.879Z,34.36
2016-05-17T09:18:56.913Z,34.16
2016-05-17T09:19:56.931Z,34.36
2016-05-17T09:20:56.949Z,34.64
2016-05-17T09:21:56.999Z,34.74
2016-05-17T09:22:57.018Z,34.74
2016-05-17T09:23:57.036Z,34.36
2016-05-17T09:24:57.070Z,34.94
2016-05-17T09:25:57.104Z,34.94
2016-05-17T09:26:57.122Z,35.13
2016-05-17T09:27:57.156Z,35.03
2016-05-17T09:28:57.174Z,34.64
2016-05-17T09:29:57.209Z,34.26
2016-05-17T09:30:57.226Z,34.16
2016-05-17T09:31:57.260Z,34.16
2016-05-17T09:32:57.295Z,34.06
2016-05-17T09:33:57.329Z,34.45
2016-05-17T09:34:57.347Z,34.26
2016-05-17T09:35:57.381Z,34.26
2016-05-17T09:36:57.587Z,34.16
2016-05-17T09:37:57.433Z,34.26
2016-05-17T09:38:57.451Z,35.13
2016-05-17T09:39:57.486Z,35.13
2016-05-17T09:40:57.503Z,34.74
2016-05-17T09:41:57.553Z,34.94
2016-05-17T09:42:57.572Z,35.52
2016-05-17T09:43:57.433Z,35.69
2016-05-17T09:44:57.483Z,36.06
2016-05-17T09:45:57.501Z,36.07
2016-05-17T09:46:57.691Z,35.59
2016-05-17T09:47:57.710Z,36.27
2016-05-17T09:48:57.571Z,35.71
2016-05-17T09:49:57.605Z,35.32
2016-05-17T09:50:57.780Z,35.13
2016-05-17T09:51:57.658Z,35.32
2016-05-17T09:52:57.849Z,35.22
2016-05-17T09:53:57.711Z,34.64
2016-05-17T09:54:57.900Z,35.13
2016-05-17T09:55:57.935Z,34.36
2016-05-17T09:56:57.953Z,34.16
2016-05-17T09:57:57.987Z,34.06
2016-05-17T09:58:58.005Z,34.06
2016-05-17T09:59:58.039Z,34.36
2016-05-17T10:00:58.057Z,34.36
2016-05-17T10:01:58.091Z,33.87
2016-05-17T10:02:58.125Z,33.97
2016-05-17T10:03:58.143Z,33.97
2016-05-17T10:04:58.178Z,33.97
2016-05-17T10:05:58.195Z,33.68
2016-05-17T10:06:58.229Z,33.78
2016-05-17T10:07:58.248Z,33.58
2016-05-17T10:08:58.126Z,34.06
2016-05-17T10:09:58.316Z,33.97
2016-05-17T10:10:58.365Z,33.97
2016-05-17T10:11:58.383Z,34.16
2016-05-17T10:12:58.387Z,33.97
2016-05-17T10:13:58.420Z,34.06
2016-05-17T10:14:58.455Z,33.86
2016-05-17T10:15:58.317Z,33.87
2016-05-17T10:16:58.506Z,33.87
2016-05-17T10:17:58.525Z,33.97
2016-05-17T10:18:58.559Z,33.97
2016-05-17T10:19:58.577Z,33.97
2016-05-17T10:20:58.611Z,33.95
2016-05-17T10:21:58.833Z,34.06
2016-05-17T10:22:58.663Z,34.06
2016-05-17T10:23:58.713Z,34.45
2016-05-17T10:24:58.715Z,34.06
2016-05-17T10:25:58.594Z,34.45
2016-05-17T10:26:58.783Z,34.36
2016-05-17T10:27:58.801Z,34.36
2016-05-17T10:28:58.836Z,34.14
2016-05-17T10:29:58.870Z,34.24
2016-05-17T10:30:58.887Z,34.45
2016-05-17T10:31:58.922Z,34.34
2016-05-17T10:32:58.940Z,34.72
2016-05-17T10:33:58.974Z,34.84
2016-05-17T10:34:58.993Z,35.11
2016-05-17T10:35:59.026Z,35.02
2016-05-17T10:36:59.169Z,35.32
2016-05-17T10:37:59.079Z,35.32
2016-05-17T10:38:59.112Z,35.03
2016-05-17T10:39:59.131Z,35.22
2016-05-17T10:40:59.165Z,35.02
2016-05-17T10:41:59.199Z,34.36
2016-05-17T10:42:59.061Z,34.34
2016-05-17T10:43:59.251Z,34.24
2016-05-17T10:44:59.270Z,33.95
2016-05-17T10:45:59.303Z,32.12
2016-05-17T10:46:59.181Z,34.34
2016-05-17T10:47:59.356Z,32.7
2016-05-17T10:48:59.389Z,33.28
2016-05-17T10:49:59.408Z,35.02
2016-05-17T10:50:59.442Z,34.53
2016-05-17T10:51:59.664Z,34.63
2016-05-17T10:52:59.494Z,34.24
2016-05-17T10:53:59.528Z,34.44
2016-05-17T10:54:59.562Z,34.34
2016-05-17T10:55:59.580Z,35.11
2016-05-17T10:56:59.614Z,35.11
2016-05-17T10:57:59.632Z,34.82
2016-05-17T10:58:59.666Z,34.34
2016-05-17T10:59:59.685Z,33.95
2016-05-17T11:00:59.719Z,33.95
2016-05-17T11:01:59.752Z,33.57
2016-05-17T11:02:59.615Z,34.05
2016-05-17T11:03:59.804Z,32.99
2016-05-17T11:04:59.839Z,34.14
2016-05-17T11:05:59.857Z,33.95
2016-05-17T11:06:59.906Z,33.76
2016-05-17T11:07:59.768Z,34.14
2016-05-17T11:08:59.943Z,34.05
2016-05-17T11:09:59.962Z,32.99
2016-05-17T11:10:59.995Z,33.66
2016-05-17T11:11:59.873Z,33.66
2016-05-17T11:13:00.047Z,32.79
2016-05-17T11:14:00.081Z,34.05
2016-05-17T11:15:00.100Z,33.09
2016-05-17T11:16:00.133Z,32.79
2016-05-17T11:17:00.167Z,32.99
2016-05-17T11:18:00.202Z,32.91
2016-05-17T11:19:00.220Z,33.18
2016-05-17T11:20:00.239Z,32.89
2016-05-17T11:21:00.273Z,33.28
2016-05-17T11:22:00.649Z,33.76
2016-05-17T11:23:00.340Z,32.79
2016-05-17T11:24:00.375Z,32.99
2016-05-17T11:25:00.377Z,32.79
2016-05-17T11:26:00.411Z,33.47
2016-05-17T11:27:00.445Z,32.89
2016-05-17T11:28:00.463Z,33.28
2016-05-17T11:29:00.497Z,32.89
2016-05-17T11:30:00.374Z,33.47
2016-05-17T11:31:00.549Z,33.66
2016-05-17T11:32:00.599Z,33.86
2016-05-17T11:33:00.618Z,33.66
2016-05-17T11:34:00.635Z,33.28
2016-05-17T11:35:00.670Z,33.18
2016-05-17T11:36:00.688Z,33.57
2016-05-17T11:37:00.721Z,33.95
2016-05-17T11:38:00.739Z,33.86
2016-05-17T11:39:00.774Z,34.34
2016-05-17T11:40:00.808Z,34.53
2016-05-17T11:41:00.826Z,34.34
2016-05-17T11:42:00.860Z,34.36
2016-05-17T11:43:00.722Z,34.53
2016-05-17T11:44:00.912Z,34.05
2016-05-17T11:45:00.946Z,34.24
2016-05-17T11:46:00.808Z,34.24
2016-05-17T11:47:00.998Z,34.14
2016-05-17T11:48:01.017Z,33.95
2016-05-17T11:49:01.066Z,34.24
2016-05-17T11:50:01.085Z,34.63
2016-05-17T11:51:01.103Z,34.44
2016-05-17T11:52:01.136Z,34.94
2016-05-17T11:53:01.171Z,35.02
2016-05-17T11:54:01.189Z,34.44
2016-05-17T11:55:01.223Z,34.84
2016-05-17T11:56:01.241Z,34.16
2016-05-17T11:57:01.275Z,34.53
2016-05-17T11:58:01.309Z,34.53
2016-05-17T11:59:01.172Z,35.11
2016-05-17T12:00:01.363Z,33.95
2016-05-17T12:01:01.395Z,34.45
2016-05-17T12:02:01.413Z,34.05
2016-05-17T12:03:01.448Z,33.47
2016-05-17T12:04:01.466Z,34.06
2016-05-17T12:05:01.500Z,34.36
2016-05-17T12:06:01.535Z,35.02
2016-05-17T12:07:01.568Z,33.1
2016-05-17T12:08:01.586Z,33.39
2016-05-17T12:09:01.604Z,32.92
2016-05-17T12:10:01.639Z,32.92
2016-05-17T12:11:01.672Z,32.92
2016-05-17T12:12:01.690Z,33
2016-05-17T12:13:01.725Z,32.62
2016-05-17T12:14:01.743Z,33.1
2016-05-17T12:15:01.777Z,32.91
2016-05-17T12:16:01.795Z,32.91
2016-05-17T12:17:01.673Z,33
2016-05-17T12:18:01.863Z,32.71
2016-05-17T12:19:02.084Z,33.2
2016-05-17T12:20:01.759Z,32.81
2016-05-17T12:21:01.794Z,32.91
2016-05-17T12:22:02.046Z,32.62
2016-05-17T12:23:02.002Z,33
2016-05-17T12:24:01.863Z,33.1
2016-05-17T12:25:02.054Z,32.71
2016-05-17T12:26:01.932Z,33.1
2016-05-17T12:27:02.122Z,33.1
2016-05-17T12:28:02.140Z,33.58
2016-05-17T12:29:02.174Z,33.29
2016-05-17T12:30:02.193Z,33.68
2016-05-17T12:31:02.227Z,33.18
2016-05-17T12:32:02.104Z,34.36
2016-05-17T12:33:02.279Z,33.87
2016-05-17T12:34:02.313Z,34.24
2016-05-17T12:35:02.331Z,33.95
2016-05-17T12:36:02.365Z,33.95
2016-05-17T12:37:02.398Z,33.95
2016-05-17T12:38:02.417Z,33.86
2016-05-17T12:39:02.451Z,33.18
2016-05-17T12:40:02.470Z,33.86
2016-05-17T12:41:02.347Z,33.47
2016-05-17T12:42:02.537Z,33.66
2016-05-17T12:43:02.587Z,33.95
2016-05-17T12:44:02.590Z,32.41
2016-05-17T12:45:02.608Z,32.41
2016-05-17T12:46:02.642Z,32.21
2016-05-17T12:47:02.676Z,32.89
2016-05-17T12:48:02.537Z,32.89
2016-05-17T12:49:02.727Z,33.18
2016-05-17T12:50:02.746Z,33.2
2016-05-17T12:51:02.780Z,32.91
2016-05-17T12:52:03.283Z,32.81
2016-05-17T12:53:02.832Z,32.71
2016-05-17T12:54:02.866Z,32.33
2016-05-17T12:55:02.885Z,32.33
2016-05-17T12:56:02.763Z,32.23